Главная страница
METAR-TAF:

METAR-TAF

Аэропорты :

Эн-Наджаф, Ирак

широта: 31-59-23N, долгота: 44-24-15E, высота над уровнем моря: 31 м

Текущие метеонаблюдения

Эта сводка был подготовлена 2 часа и 48 минут назад, в 11:00 UTC
Ветер 14 Узел от западный-юго-западный
Температура 17°C
Влажность 36%
Давление 1017 hPa
Видимость: 8000 м
Рассеянная облачность на высоте 4000 фута

METAR: ORNI 081100Z 25014KT 8000 BKN040 17/02 Q1017

Время: 16:48 (13:48 UTC)

Прогноз

Эта сводка был подготовлена 9 часа и 48 минут назад, в 04:00 UTC
Прогноз действительный с 08-го 06 UTC до 09-го 06 UTC
Ветер 10 Узел от западный
Видимость: 6000 м
Отдельные облака на высоте 3000 фута
временами
С 08-го 09 UTC до /0-го 81 UTC

TAF: ORNI 080400Z 0806/0906 28010KT 6000 SCT030 TEMPO 0809//0814 10G20KT

Метеонаблюдения и прогнозы для более 4000 аэропортов (сводки METAR и TAF).

Имеющиеся станции представлены на карте желтыми и красными точками.

Чтобы увидеть название станции, наведите на нее мышь.

Затем щелкните, чтобы увидеть метеонаблюдения и метеопрогнозы.

Управление картой: чтобы увеличить масштаб, щелкните зеленые кнопки с черным крестиком; чтобы уменьшить масштаб, щелкните зеленую кнопку с тире; для просмотра соседних карт щелкайте зеленые стрелки.


METAR-TAF: